Terminal Aerodrome Forecast
Issued by NWS Jackson, MS

Home | Current Version | Previous Version | Text Only | Print | Product List | Glossary On
Versions: 1 2 3 4 5 6 7 8 9 10 11 12
010
FTUS44 KJAN 242320
TAFGWO
TAF
KGWO 242320Z 2500/2524 14012KT P6SM VCSH FEW090 FEW100
     FM250400 16016G24KT P6SM BKN025 BKN250
     FM250600 16017G27KT P6SM VCSH BKN025 OVC250
     FM250800 17018G27KT P6SM TSRA BKN025CB BKN250
     FM251200 17015G24KT P6SM VCTS BKN025CB OVC250
     FM251700 18015G23KT P6SM VCSH BKN025 BKN250
     FM251900 19014KT P6SM SHRA VCTS BKN050CB BKN250=

USA.gov is the U.S. government's official web portal to all federal, state and local government web resources and services.